sensor_id;sensor_type;location;lat;lon;timestamp;P1;durP1;ratioP1;P2;durP2;ratioP2
7737;SDS011;29398;45.328;5.558;2023-09-08T00:00:38;4.07;;;3.72;;
7737;SDS011;29398;45.328;5.558;2023-09-08T00:01:40;3.92;;;3.60;;
7737;SDS011;29398;45.328;5.558;2023-09-08T00:02:42;4.38;;;3.95;;
7737;SDS011;29398;45.328;5.558;2023-09-08T00:03:43;4.07;;;3.67;;
7737;SDS011;29398;45.328;5.558;2023-09-08T00:04:45;6.00;;;3.92;;
7737;SDS011;29398;45.328;5.558;2023-09-08T00:05:46;5.32;;;3.80;;
7737;SDS011;29398;45.328;5.558;2023-09-08T00:06:48;7.30;;;4.05;;
7737;SDS011;29398;45.328;5.558;2023-09-08T00:07:49;5.28;;;3.67;;
7737;SDS011;29398;45.328;5.558;2023-09-08T00:08:51;4.13;;;3.67;;
7737;SDS011;29398;45.328;5.558;2023-09-08T00:09:52;4.40;;;3.70;;
7737;SDS011;29398;45.328;5.558;2023-09-08T00:10:55;4.18;;;3.78;;
7737;SDS011;29398;45.328;5.558;2023-09-08T00:11:56;3.92;;;3.60;;
7737;SDS011;29398;45.328;5.558;2023-09-08T00:12:59;4.00;;;3.60;;
7737;SDS011;29398;45.328;5.558;2023-09-08T00:14:00;4.53;;;4.13;;
7737;SDS011;29398;45.328;5.558;2023-09-08T00:15:04;4.93;;;3.85;;
7737;SDS011;29398;45.328;5.558;2023-09-08T00:16:06;7.60;;;4.43;;
7737;SDS011;29398;45.328;5.558;2023-09-08T00:17:10;4.97;;;4.05;;
7737;SDS011;29398;45.328;5.558;2023-09-08T00:18:11;4.03;;;3.45;;
7737;SDS011;29398;45.328;5.558;2023-09-08T00:19:13;4.32;;;3.92;;
7737;SDS011;29398;45.328;5.558;2023-09-08T00:20:14;4.20;;;3.80;;
7737;SDS011;29398;45.328;5.558;2023-09-08T00:21:16;5.25;;;4.70;;
7737;SDS011;29398;45.328;5.558;2023-09-08T00:22:17;4.30;;;3.90;;
7737;SDS011;29398;45.328;5.558;2023-09-08T00:23:19;4.35;;;3.70;;
7737;SDS011;29398;45.328;5.558;2023-09-08T00:24:21;4.78;;;3.55;;
7737;SDS011;29398;45.328;5.558;2023-09-08T00:25:22;6.03;;;4.10;;
7737;SDS011;29398;45.328;5.558;2023-09-08T00:26:25;4.43;;;3.30;;
7737;SDS011;29398;45.328;5.558;2023-09-08T00:27:27;5.32;;;3.50;;
7737;SDS011;29398;45.328;5.558;2023-09-08T00:28:29;5.68;;;3.85;;
7737;SDS011;29398;45.328;5.558;2023-09-08T00:29:30;4.20;;;3.80;;
7737;SDS011;29398;45.328;5.558;2023-09-08T00:30:32;4.32;;;3.85;;
7737;SDS011;29398;45.328;5.558;2023-09-08T00:31:33;3.88;;;3.58;;
7737;SDS011;29398;45.328;5.558;2023-09-08T00:32:35;5.03;;;4.10;;
7737;SDS011;29398;45.328;5.558;2023-09-08T00:33:36;5.18;;;4.25;;
7737;SDS011;29398;45.328;5.558;2023-09-08T00:34:40;3.85;;;3.50;;
7737;SDS011;29398;45.328;5.558;2023-09-08T00:35:43;4.05;;;3.75;;
7737;SDS011;29398;45.328;5.558;2023-09-08T00:36:46;4.40;;;3.58;;
7737;SDS011;29398;45.328;5.558;2023-09-08T00:37:47;5.90;;;4.00;;
7737;SDS011;29398;45.328;5.558;2023-09-08T00:38:49;4.32;;;3.92;;
7737;SDS011;29398;45.328;5.558;2023-09-08T00:39:50;5.72;;;3.50;;
7737;SDS011;29398;45.328;5.558;2023-09-08T00:40:52;5.15;;;3.47;;
7737;SDS011;29398;45.328;5.558;2023-09-08T00:41:54;4.18;;;3.78;;
7737;SDS011;29398;45.328;5.558;2023-09-08T00:42:56;7.47;;;3.72;;
7737;SDS011;29398;45.328;5.558;2023-09-08T00:43:57;3.75;;;3.45;;
7737;SDS011;29398;45.328;5.558;2023-09-08T00:44:59;4.75;;;3.65;;
7737;SDS011;29398;45.328;5.558;2023-09-08T00:46:01;4.13;;;3.53;;
7737;SDS011;29398;45.328;5.558;2023-09-08T00:47:03;8.10;;;4.18;;
7737;SDS011;29398;45.328;5.558;2023-09-08T00:48:05;4.95;;;3.70;;
7737;SDS011;29398;45.328;5.558;2023-09-08T00:49:06;5.45;;;3.83;;
7737;SDS011;29398;45.328;5.558;2023-09-08T00:50:09;4.25;;;3.63;;
7737;SDS011;29398;45.328;5.558;2023-09-08T00:51:11;5.10;;;4.13;;
7737;SDS011;29398;45.328;5.558;2023-09-08T00:52:13;4.28;;;3.85;;
7737;SDS011;29398;45.328;5.558;2023-09-08T00:53:15;5.13;;;3.72;;
7737;SDS011;29398;45.328;5.558;2023-09-08T00:54:18;5.03;;;3.60;;
7737;SDS011;29398;45.328;5.558;2023-09-08T00:55:19;4.03;;;3.53;;
7737;SDS011;29398;45.328;5.558;2023-09-08T00:56:21;4.32;;;3.80;;
7737;SDS011;29398;45.328;5.558;2023-09-08T00:57:24;4.10;;;3.70;;
7737;SDS011;29398;45.328;5.558;2023-09-08T00:58:27;7.78;;;4.20;;
7737;SDS011;29398;45.328;5.558;2023-09-08T00:59:28;3.88;;;3.53;;
7737;SDS011;29398;45.328;5.558;2023-09-08T01:00:32;5.88;;;3.60;;
7737;SDS011;29398;45.328;5.558;2023-09-08T01:01:33;4.03;;;3.50;;
7737;SDS011;29398;45.328;5.558;2023-09-08T01:02:35;6.70;;;4.00;;
7737;SDS011;29398;45.328;5.558;2023-09-08T01:03:38;4.45;;;3.92;;
7737;SDS011;29398;45.328;5.558;2023-09-08T01:04:40;4.72;;;4.22;;
7737;SDS011;29398;45.328;5.558;2023-09-08T01:05:42;4.30;;;3.85;;
7737;SDS011;29398;45.328;5.558;2023-09-08T01:06:43;4.03;;;3.72;;
7737;SDS011;29398;45.328;5.558;2023-09-08T01:07:47;6.00;;;3.47;;
7737;SDS011;29398;45.328;5.558;2023-09-08T01:08:49;4.03;;;3.72;;
7737;SDS011;29398;45.328;5.558;2023-09-08T01:09:51;3.97;;;3.53;;
7737;SDS011;29398;45.328;5.558;2023-09-08T01:10:53;3.97;;;3.67;;
7737;SDS011;29398;45.328;5.558;2023-09-08T01:11:56;4.45;;;3.75;;
7737;SDS011;29398;45.328;5.558;2023-09-08T01:13:02;4.03;;;3.72;;
7737;SDS011;29398;45.328;5.558;2023-09-08T01:14:04;4.85;;;3.65;;
7737;SDS011;29398;45.328;5.558;2023-09-08T01:15:06;3.80;;;3.50;;
7737;SDS011;29398;45.328;5.558;2023-09-08T01:16:09;4.40;;;4.05;;
7737;SDS011;29398;45.328;5.558;2023-09-08T01:17:10;4.25;;;3.88;;
7737;SDS011;29398;45.328;5.558;2023-09-08T01:18:12;5.45;;;4.22;;
7737;SDS011;29398;45.328;5.558;2023-09-08T01:19:14;4.65;;;3.70;;
7737;SDS011;29398;45.328;5.558;2023-09-08T01:20:19;3.00;;;2.53;;
7737;SDS011;29398;45.328;5.558;2023-09-08T01:21:32;4.07;;;3.67;;
7737;SDS011;29398;45.328;5.558;2023-09-08T01:23:06;4.70;;;4.30;;
7737;SDS011;29398;45.328;5.558;2023-09-08T01:24:25;4.45;;;4.05;;
7737;SDS011;29398;45.328;5.558;2023-09-08T01:25:40;4.20;;;3.80;;
7737;SDS011;29398;45.328;5.558;2023-09-08T01:26:45;4.20;;;3.80;;
7737;SDS011;29398;45.328;5.558;2023-09-08T01:27:47;3.85;;;3.55;;
7737;SDS011;29398;45.328;5.558;2023-09-08T01:28:50;4.30;;;3.83;;
7737;SDS011;29398;45.328;5.558;2023-09-08T01:29:53;4.32;;;3.92;;
7737;SDS011;29398;45.328;5.558;2023-09-08T01:30:55;6.65;;;4.00;;
7737;SDS011;29398;45.328;5.558;2023-09-08T01:31:58;4.30;;;3.90;;
7737;SDS011;29398;45.328;5.558;2023-09-08T01:33:01;3.72;;;3.42;;
7737;SDS011;29398;45.328;5.558;2023-09-08T01:34:03;5.10;;;4.03;;
7737;SDS011;29398;45.328;5.558;2023-09-08T01:35:07;4.35;;;3.95;;
7737;SDS011;29398;45.328;5.558;2023-09-08T01:36:10;5.45;;;4.10;;
7737;SDS011;29398;45.328;5.558;2023-09-08T01:37:11;4.43;;;3.80;;
7737;SDS011;29398;45.328;5.558;2023-09-08T01:38:13;4.13;;;3.67;;
7737;SDS011;29398;45.328;5.558;2023-09-08T01:39:14;5.85;;;4.20;;
7737;SDS011;29398;45.328;5.558;2023-09-08T01:40:16;4.90;;;3.92;;
7737;SDS011;29398;45.328;5.558;2023-09-08T01:41:20;4.40;;;4.00;;
7737;SDS011;29398;45.328;5.558;2023-09-08T01:42:22;5.63;;;3.53;;
7737;SDS011;29398;45.328;5.558;2023-09-08T01:43:23;5.75;;;4.50;;
7737;SDS011;29398;45.328;5.558;2023-09-08T01:44:26;5.90;;;4.22;;
7737;SDS011;29398;45.328;5.558;2023-09-08T01:45:27;4.43;;;4.03;;
7737;SDS011;29398;45.328;5.558;2023-09-08T01:46:28;4.30;;;3.90;;
7737;SDS011;29398;45.328;5.558;2023-09-08T01:47:30;4.20;;;3.90;;
7737;SDS011;29398;45.328;5.558;2023-09-08T01:48:31;5.50;;;3.88;;
7737;SDS011;29398;45.328;5.558;2023-09-08T01:49:34;4.22;;;3.92;;
7737;SDS011;29398;45.328;5.558;2023-09-08T01:50:35;4.50;;;4.10;;
7737;SDS011;29398;45.328;5.558;2023-09-08T01:51:37;6.80;;;4.45;;
7737;SDS011;29398;45.328;5.558;2023-09-08T01:52:38;4.50;;;4.10;;
7737;SDS011;29398;45.328;5.558;2023-09-08T01:53:40;5.00;;;3.97;;
7737;SDS011;29398;45.328;5.558;2023-09-08T01:54:41;4.50;;;4.10;;
7737;SDS011;29398;45.328;5.558;2023-09-08T01:55:42;4.85;;;4.10;;
7737;SDS011;29398;45.328;5.558;2023-09-08T01:56:47;4.18;;;3.45;;
7737;SDS011;29398;45.328;5.558;2023-09-08T01:57:48;4.28;;;3.83;;
7737;SDS011;29398;45.328;5.558;2023-09-08T01:58:51;4.38;;;3.97;;
7737;SDS011;29398;45.328;5.558;2023-09-08T01:59:52;4.15;;;3.80;;
7737;SDS011;29398;45.328;5.558;2023-09-08T02:00:54;7.68;;;4.10;;
7737;SDS011;29398;45.328;5.558;2023-09-08T02:01:55;4.07;;;3.67;;
7737;SDS011;29398;45.328;5.558;2023-09-08T02:02:57;4.60;;;4.00;;
7737;SDS011;29398;45.328;5.558;2023-09-08T02:03:58;5.35;;;4.38;;
7737;SDS011;29398;45.328;5.558;2023-09-08T02:05:00;4.15;;;3.70;;
7737;SDS011;29398;45.328;5.558;2023-09-08T02:06:02;5.63;;;4.28;;
7737;SDS011;29398;45.328;5.558;2023-09-08T02:07:05;5.43;;;3.92;;
7737;SDS011;29398;45.328;5.558;2023-09-08T02:08:06;5.00;;;3.95;;
7737;SDS011;29398;45.328;5.558;2023-09-08T02:09:08;7.63;;;4.30;;
7737;SDS011;29398;45.328;5.558;2023-09-08T02:10:10;5.63;;;3.95;;
7737;SDS011;29398;45.328;5.558;2023-09-08T02:11:13;4.20;;;3.90;;
7737;SDS011;29398;45.328;5.558;2023-09-08T02:12:15;5.70;;;4.45;;
7737;SDS011;29398;45.328;5.558;2023-09-08T02:13:17;5.45;;;4.32;;
7737;SDS011;29398;45.328;5.558;2023-09-08T02:14:18;4.07;;;3.70;;
7737;SDS011;29398;45.328;5.558;2023-09-08T02:15:21;4.15;;;3.75;;
7737;SDS011;29398;45.328;5.558;2023-09-08T02:16:22;4.20;;;3.83;;
7737;SDS011;29398;45.328;5.558;2023-09-08T02:17:25;4.50;;;4.10;;
7737;SDS011;29398;45.328;5.558;2023-09-08T02:18:26;4.45;;;3.90;;
7737;SDS011;29398;45.328;5.558;2023-09-08T02:19:28;4.47;;;4.18;;
7737;SDS011;29398;45.328;5.558;2023-09-08T02:20:30;4.65;;;3.90;;
7737;SDS011;29398;45.328;5.558;2023-09-08T02:21:32;4.53;;;4.13;;
7737;SDS011;29398;45.328;5.558;2023-09-08T02:22:33;6.35;;;3.78;;
7737;SDS011;29398;45.328;5.558;2023-09-08T02:23:35;5.40;;;3.85;;
7737;SDS011;29398;45.328;5.558;2023-09-08T02:24:36;4.57;;;3.65;;
7737;SDS011;29398;45.328;5.558;2023-09-08T02:25:38;6.10;;;4.38;;
7737;SDS011;29398;45.328;5.558;2023-09-08T02:26:40;4.60;;;4.20;;
7737;SDS011;29398;45.328;5.558;2023-09-08T02:27:43;4.65;;;3.80;;
7737;SDS011;29398;45.328;5.558;2023-09-08T02:28:46;4.10;;;3.80;;
7737;SDS011;29398;45.328;5.558;2023-09-08T02:29:47;4.80;;;3.88;;
7737;SDS011;29398;45.328;5.558;2023-09-08T02:30:49;4.45;;;3.92;;
7737;SDS011;29398;45.328;5.558;2023-09-08T02:31:51;4.38;;;3.95;;
7737;SDS011;29398;45.328;5.558;2023-09-08T02:32:52;4.25;;;3.88;;
7737;SDS011;29398;45.328;5.558;2023-09-08T02:33:55;5.32;;;4.05;;
7737;SDS011;29398;45.328;5.558;2023-09-08T02:34:56;4.55;;;3.80;;
7737;SDS011;29398;45.328;5.558;2023-09-08T02:36:01;5.50;;;4.43;;
7737;SDS011;29398;45.328;5.558;2023-09-08T02:37:03;5.80;;;3.88;;
7737;SDS011;29398;45.328;5.558;2023-09-08T02:38:05;4.65;;;4.25;;
7737;SDS011;29398;45.328;5.558;2023-09-08T02:39:06;5.35;;;4.38;;
7737;SDS011;29398;45.328;5.558;2023-09-08T02:40:09;6.53;;;4.53;;
7737;SDS011;29398;45.328;5.558;2023-09-08T02:41:11;7.03;;;4.45;;
7737;SDS011;29398;45.328;5.558;2023-09-08T02:42:14;4.80;;;4.40;;
7737;SDS011;29398;45.328;5.558;2023-09-08T02:43:17;4.95;;;4.45;;
7737;SDS011;29398;45.328;5.558;2023-09-08T02:44:19;4.90;;;4.40;;
7737;SDS011;29398;45.328;5.558;2023-09-08T02:45:22;4.70;;;4.30;;
7737;SDS011;29398;45.328;5.558;2023-09-08T02:46:24;4.75;;;4.25;;
7737;SDS011;29398;45.328;5.558;2023-09-08T02:47:26;5.18;;;4.78;;
7737;SDS011;29398;45.328;5.558;2023-09-08T02:48:29;5.35;;;4.47;;
7737;SDS011;29398;45.328;5.558;2023-09-08T02:49:30;4.85;;;4.43;;
7737;SDS011;29398;45.328;5.558;2023-09-08T02:50:33;4.80;;;4.38;;
7737;SDS011;29398;45.328;5.558;2023-09-08T02:51:34;5.32;;;4.30;;
7737;SDS011;29398;45.328;5.558;2023-09-08T02:52:36;5.15;;;4.68;;
7737;SDS011;29398;45.328;5.558;2023-09-08T02:53:37;4.93;;;4.50;;
7737;SDS011;29398;45.328;5.558;2023-09-08T02:54:39;5.65;;;4.80;;
7737;SDS011;29398;45.328;5.558;2023-09-08T02:55:41;5.15;;;4.65;;
7737;SDS011;29398;45.328;5.558;2023-09-08T02:56:42;5.75;;;4.90;;
7737;SDS011;29398;45.328;5.558;2023-09-08T02:57:44;5.53;;;5.03;;
7737;SDS011;29398;45.328;5.558;2023-09-08T02:58:46;4.80;;;4.40;;
7737;SDS011;29398;45.328;5.558;2023-09-08T02:59:50;6.03;;;4.57;;
7737;SDS011;29398;45.328;5.558;2023-09-08T03:00:51;9.15;;;4.68;;
7737;SDS011;29398;45.328;5.558;2023-09-08T03:01:55;4.70;;;4.30;;
7737;SDS011;29398;45.328;5.558;2023-09-08T03:02:58;6.05;;;4.47;;
7737;SDS011;29398;45.328;5.558;2023-09-08T03:04:00;5.32;;;4.82;;
7737;SDS011;29398;45.328;5.558;2023-09-08T03:05:20;5.00;;;4.50;;
7737;SDS011;29398;45.328;5.558;2023-09-08T03:06:22;5.30;;;4.05;;
7737;SDS011;29398;45.328;5.558;2023-09-08T03:07:24;5.90;;;4.32;;
7737;SDS011;29398;45.328;5.558;2023-09-08T03:08:26;4.85;;;4.45;;
7737;SDS011;29398;45.328;5.558;2023-09-08T03:09:27;4.95;;;4.45;;
7737;SDS011;29398;45.328;5.558;2023-09-08T03:10:30;5.18;;;4.50;;
7737;SDS011;29398;45.328;5.558;2023-09-08T03:11:34;4.80;;;4.30;;
7737;SDS011;29398;45.328;5.558;2023-09-08T03:12:37;4.80;;;4.40;;
7737;SDS011;29398;45.328;5.558;2023-09-08T03:13:38;4.93;;;4.50;;
7737;SDS011;29398;45.328;5.558;2023-09-08T03:14:42;5.25;;;4.75;;
7737;SDS011;29398;45.328;5.558;2023-09-08T03:15:43;5.97;;;4.90;;
7737;SDS011;29398;45.328;5.558;2023-09-08T03:16:45;4.60;;;4.30;;
7737;SDS011;29398;45.328;5.558;2023-09-08T03:17:46;4.30;;;3.97;;
7737;SDS011;29398;45.328;5.558;2023-09-08T03:18:48;8.00;;;4.93;;
7737;SDS011;29398;45.328;5.558;2023-09-08T03:19:50;5.10;;;4.70;;
7737;SDS011;29398;45.328;5.558;2023-09-08T03:20:52;6.93;;;4.70;;
7737;SDS011;29398;45.328;5.558;2023-09-08T03:21:53;5.43;;;4.32;;
7737;SDS011;29398;45.328;5.558;2023-09-08T03:22:54;5.70;;;4.25;;
7737;SDS011;29398;45.328;5.558;2023-09-08T03:23:56;4.97;;;4.57;;
7737;SDS011;29398;45.328;5.558;2023-09-08T03:24:57;5.40;;;4.85;;
7737;SDS011;29398;45.328;5.558;2023-09-08T03:25:59;4.78;;;4.28;;
7737;SDS011;29398;45.328;5.558;2023-09-08T03:27:00;5.15;;;4.38;;
7737;SDS011;29398;45.328;5.558;2023-09-08T03:28:03;5.05;;;4.55;;
7737;SDS011;29398;45.328;5.558;2023-09-08T03:29:05;4.70;;;4.30;;
7737;SDS011;29398;45.328;5.558;2023-09-08T03:30:09;7.10;;;4.60;;
7737;SDS011;29398;45.328;5.558;2023-09-08T03:31:10;4.95;;;4.50;;
7737;SDS011;29398;45.328;5.558;2023-09-08T03:32:12;4.90;;;4.50;;
7737;SDS011;29398;45.328;5.558;2023-09-08T03:33:13;4.40;;;4.00;;
7737;SDS011;29398;45.328;5.558;2023-09-08T03:34:15;4.95;;;4.47;;
7737;SDS011;29398;45.328;5.558;2023-09-08T03:35:18;5.50;;;5.00;;
7737;SDS011;29398;45.328;5.558;2023-09-08T03:36:19;4.80;;;4.40;;
7737;SDS011;29398;45.328;5.558;2023-09-08T03:37:22;5.30;;;4.82;;
7737;SDS011;29398;45.328;5.558;2023-09-08T03:38:23;5.65;;;5.00;;
7737;SDS011;29398;45.328;5.558;2023-09-08T03:39:27;4.47;;;4.07;;
7737;SDS011;29398;45.328;5.558;2023-09-08T03:40:28;4.75;;;4.32;;
7737;SDS011;29398;45.328;5.558;2023-09-08T03:41:31;8.68;;;5.28;;
7737;SDS011;29398;45.328;5.558;2023-09-08T03:42:35;5.10;;;4.60;;
7737;SDS011;29398;45.328;5.558;2023-09-08T03:43:37;5.85;;;4.75;;
7737;SDS011;29398;45.328;5.558;2023-09-08T03:44:38;4.88;;;4.35;;
7737;SDS011;29398;45.328;5.558;2023-09-08T03:45:42;4.80;;;4.40;;
7737;SDS011;29398;45.328;5.558;2023-09-08T03:46:43;5.65;;;4.10;;
7737;SDS011;29398;45.328;5.558;2023-09-08T03:47:45;5.03;;;4.63;;
7737;SDS011;29398;45.328;5.558;2023-09-08T03:48:47;4.65;;;4.22;;
7737;SDS011;29398;45.328;5.558;2023-09-08T03:49:49;5.10;;;4.63;;
7737;SDS011;29398;45.328;5.558;2023-09-08T03:50:50;6.20;;;4.60;;
7737;SDS011;29398;45.328;5.558;2023-09-08T03:51:53;6.68;;;5.05;;
7737;SDS011;29398;45.328;5.558;2023-09-08T03:52:54;5.22;;;4.78;;
7737;SDS011;29398;45.328;5.558;2023-09-08T03:53:57;6.47;;;4.50;;
7737;SDS011;29398;45.328;5.558;2023-09-08T03:54:58;4.53;;;4.10;;
7737;SDS011;29398;45.328;5.558;2023-09-08T03:56:01;5.03;;;4.53;;
7737;SDS011;29398;45.328;5.558;2023-09-08T03:57:03;6.28;;;4.68;;
7737;SDS011;29398;45.328;5.558;2023-09-08T03:58:05;9.13;;;4.40;;
7737;SDS011;29398;45.328;5.558;2023-09-08T03:59:07;4.75;;;4.32;;
7737;SDS011;29398;45.328;5.558;2023-09-08T04:00:09;4.97;;;4.43;;
7737;SDS011;29398;45.328;5.558;2023-09-08T04:01:15;4.80;;;4.32;;
7737;SDS011;29398;45.328;5.558;2023-09-08T04:02:18;4.75;;;4.35;;
7737;SDS011;29398;45.328;5.558;2023-09-08T04:03:19;5.20;;;4.20;;
7737;SDS011;29398;45.328;5.558;2023-09-08T04:04:21;5.65;;;5.00;;
7737;SDS011;29398;45.328;5.558;2023-09-08T04:05:22;5.30;;;4.22;;
7737;SDS011;29398;45.328;5.558;2023-09-08T04:06:24;4.75;;;4.25;;
7737;SDS011;29398;45.328;5.558;2023-09-08T04:07:26;7.63;;;4.13;;
7737;SDS011;29398;45.328;5.558;2023-09-08T04:08:27;4.78;;;4.32;;
7737;SDS011;29398;45.328;5.558;2023-09-08T04:09:29;4.68;;;4.28;;
7737;SDS011;29398;45.328;5.558;2023-09-08T04:10:32;6.07;;;4.85;;
7737;SDS011;29398;45.328;5.558;2023-09-08T04:11:34;5.45;;;4.50;;
7737;SDS011;29398;45.328;5.558;2023-09-08T04:12:35;7.43;;;5.25;;
7737;SDS011;29398;45.328;5.558;2023-09-08T04:13:37;5.05;;;4.55;;
7737;SDS011;29398;45.328;5.558;2023-09-08T04:14:38;5.45;;;4.50;;
7737;SDS011;29398;45.328;5.558;2023-09-08T04:15:40;5.00;;;4.60;;
7737;SDS011;29398;45.328;5.558;2023-09-08T04:16:42;6.30;;;4.60;;
7737;SDS011;29398;45.328;5.558;2023-09-08T04:17:45;5.93;;;4.32;;
7737;SDS011;29398;45.328;5.558;2023-09-08T04:18:46;6.28;;;4.75;;
7737;SDS011;29398;45.328;5.558;2023-09-08T04:19:48;4.90;;;4.47;;
7737;SDS011;29398;45.328;5.558;2023-09-08T04:20:49;5.38;;;4.97;;
7737;SDS011;29398;45.328;5.558;2023-09-08T04:21:52;5.72;;;4.70;;
7737;SDS011;29398;45.328;5.558;2023-09-08T04:22:53;5.18;;;4.40;;
7737;SDS011;29398;45.328;5.558;2023-09-08T04:23:55;6.00;;;4.28;;
7737;SDS011;29398;45.328;5.558;2023-09-08T04:24:56;4.95;;;4.45;;
7737;SDS011;29398;45.328;5.558;2023-09-08T04:25:57;7.25;;;4.20;;
7737;SDS011;29398;45.328;5.558;2023-09-08T04:26:59;4.60;;;4.20;;
7737;SDS011;29398;45.328;5.558;2023-09-08T04:28:00;5.30;;;4.70;;
7737;SDS011;29398;45.328;5.558;2023-09-08T04:29:02;5.78;;;5.18;;
7737;SDS011;29398;45.328;5.558;2023-09-08T04:30:04;5.63;;;5.13;;
7737;SDS011;29398;45.328;5.558;2023-09-08T04:31:07;5.03;;;4.55;;
7737;SDS011;29398;45.328;5.558;2023-09-08T04:32:09;6.80;;;4.72;;
7737;SDS011;29398;45.328;5.558;2023-09-08T04:33:11;4.90;;;4.50;;
7737;SDS011;29398;45.328;5.558;2023-09-08T04:34:12;5.47;;;4.68;;
7737;SDS011;29398;45.328;5.558;2023-09-08T04:35:15;7.15;;;4.93;;
7737;SDS011;29398;45.328;5.558;2023-09-08T04:36:16;5.70;;;4.80;;
7737;SDS011;29398;45.328;5.558;2023-09-08T04:37:18;12.05;;;5.20;;
7737;SDS011;29398;45.328;5.558;2023-09-08T04:38:19;5.63;;;5.13;;
7737;SDS011;29398;45.328;5.558;2023-09-08T04:39:21;5.13;;;4.63;;
7737;SDS011;29398;45.328;5.558;2023-09-08T04:40:23;6.20;;;4.30;;
7737;SDS011;29398;45.328;5.558;2023-09-08T04:41:25;6.97;;;4.45;;
7737;SDS011;29398;45.328;5.558;2023-09-08T04:42:27;5.22;;;4.72;;
7737;SDS011;29398;45.328;5.558;2023-09-08T04:43:29;7.18;;;5.55;;
7737;SDS011;29398;45.328;5.558;2023-09-08T04:44:30;5.50;;;5.07;;
7737;SDS011;29398;45.328;5.558;2023-09-08T04:45:32;5.10;;;4.70;;
7737;SDS011;29398;45.328;5.558;2023-09-08T04:46:34;5.50;;;5.00;;
7737;SDS011;29398;45.328;5.558;2023-09-08T04:47:38;8.05;;;5.40;;
7737;SDS011;29398;45.328;5.558;2023-09-08T04:48:39;7.22;;;5.32;;
7737;SDS011;29398;45.328;5.558;2023-09-08T04:49:42;6.07;;;5.20;;
7737;SDS011;29398;45.328;5.558;2023-09-08T04:50:43;6.05;;;5.38;;
7737;SDS011;29398;45.328;5.558;2023-09-08T04:51:46;6.95;;;6.10;;
7737;SDS011;29398;45.328;5.558;2023-09-08T04:52:50;7.05;;;5.72;;
7737;SDS011;29398;45.328;5.558;2023-09-08T04:53:51;8.75;;;5.45;;
7737;SDS011;29398;45.328;5.558;2023-09-08T04:54:53;7.43;;;5.90;;
7737;SDS011;29398;45.328;5.558;2023-09-08T04:55:54;6.50;;;5.90;;
7737;SDS011;29398;45.328;5.558;2023-09-08T04:56:57;5.60;;;5.10;;
7737;SDS011;29398;45.328;5.558;2023-09-08T04:57:59;5.72;;;5.07;;
7737;SDS011;29398;45.328;5.558;2023-09-08T04:59:01;5.82;;;5.07;;
7737;SDS011;29398;45.328;5.558;2023-09-08T05:00:02;5.35;;;4.95;;
7737;SDS011;29398;45.328;5.558;2023-09-08T05:01:05;5.28;;;4.78;;
7737;SDS011;29398;45.328;5.558;2023-09-08T05:02:06;8.80;;;5.70;;
7737;SDS011;29398;45.328;5.558;2023-09-08T05:03:10;6.85;;;5.43;;
7737;SDS011;29398;45.328;5.558;2023-09-08T05:04:11;6.35;;;5.57;;
7737;SDS011;29398;45.328;5.558;2023-09-08T05:05:15;8.45;;;5.72;;
7737;SDS011;29398;45.328;5.558;2023-09-08T05:06:16;5.20;;;4.80;;
7737;SDS011;29398;45.328;5.558;2023-09-08T05:07:18;5.85;;;5.28;;
7737;SDS011;29398;45.328;5.558;2023-09-08T05:08:19;5.72;;;5.15;;
7737;SDS011;29398;45.328;5.558;2023-09-08T05:09:21;6.55;;;5.25;;
7737;SDS011;29398;45.328;5.558;2023-09-08T05:10:23;7.40;;;5.20;;
7737;SDS011;29398;45.328;5.558;2023-09-08T05:11:25;5.72;;;5.13;;
7737;SDS011;29398;45.328;5.558;2023-09-08T05:12:28;5.55;;;5.13;;
7737;SDS011;29398;45.328;5.558;2023-09-08T05:13:29;6.43;;;5.13;;
7737;SDS011;29398;45.328;5.558;2023-09-08T05:14:32;6.93;;;5.22;;
7737;SDS011;29398;45.328;5.558;2023-09-08T05:15:34;9.65;;;5.20;;
7737;SDS011;29398;45.328;5.558;2023-09-08T05:16:37;6.25;;;5.15;;
7737;SDS011;29398;45.328;5.558;2023-09-08T05:17:46;6.35;;;4.88;;
7737;SDS011;29398;45.328;5.558;2023-09-08T05:18:50;5.35;;;4.85;;
7737;SDS011;29398;45.328;5.558;2023-09-08T05:19:52;7.18;;;4.65;;
7737;SDS011;29398;45.328;5.558;2023-09-08T05:20:55;5.65;;;5.13;;
7737;SDS011;29398;45.328;5.558;2023-09-08T05:21:56;5.03;;;4.63;;
7737;SDS011;29398;45.328;5.558;2023-09-08T05:22:58;4.72;;;4.32;;
7737;SDS011;29398;45.328;5.558;2023-09-08T05:23:59;6.03;;;4.40;;
7737;SDS011;29398;45.328;5.558;2023-09-08T05:25:01;5.32;;;4.60;;
7737;SDS011;29398;45.328;5.558;2023-09-08T05:26:03;6.15;;;4.95;;
7737;SDS011;29398;45.328;5.558;2023-09-08T05:27:05;9.05;;;5.50;;
7737;SDS011;29398;45.328;5.558;2023-09-08T05:28:07;6.00;;;5.18;;
7737;SDS011;29398;45.328;5.558;2023-09-08T05:29:09;6.13;;;4.85;;
7737;SDS011;29398;45.328;5.558;2023-09-08T05:30:10;6.25;;;5.38;;
7737;SDS011;29398;45.328;5.558;2023-09-08T05:31:13;7.55;;;5.25;;
7737;SDS011;29398;45.328;5.558;2023-09-08T05:32:14;5.20;;;4.70;;
7737;SDS011;29398;45.328;5.558;2023-09-08T05:33:17;5.95;;;5.22;;
7737;SDS011;29398;45.328;5.558;2023-09-08T05:34:21;6.97;;;4.90;;
7737;SDS011;29398;45.328;5.558;2023-09-08T05:35:23;5.80;;;4.45;;
7737;SDS011;29398;45.328;5.558;2023-09-08T05:36:24;5.40;;;4.63;;
7737;SDS011;29398;45.328;5.558;2023-09-08T05:37:27;6.93;;;5.00;;
7737;SDS011;29398;45.328;5.558;2023-09-08T05:38:28;5.78;;;4.93;;
7737;SDS011;29398;45.328;5.558;2023-09-08T05:39:30;5.75;;;4.57;;
7737;SDS011;29398;45.328;5.558;2023-09-08T05:40:33;5.40;;;4.90;;
7737;SDS011;29398;45.328;5.558;2023-09-08T05:41:37;5.25;;;4.47;;
7737;SDS011;29398;45.328;5.558;2023-09-08T05:42:39;6.00;;;4.70;;
7737;SDS011;29398;45.328;5.558;2023-09-08T05:43:40;6.15;;;4.50;;
7737;SDS011;29398;45.328;5.558;2023-09-08T05:44:42;5.97;;;4.95;;
7737;SDS011;29398;45.328;5.558;2023-09-08T05:45:45;5.57;;;5.07;;
7737;SDS011;29398;45.328;5.558;2023-09-08T05:46:47;7.78;;;5.57;;
7737;SDS011;29398;45.328;5.558;2023-09-08T05:47:49;7.38;;;4.85;;
7737;SDS011;29398;45.328;5.558;2023-09-08T05:48:52;7.57;;;5.40;;
7737;SDS011;29398;45.328;5.558;2023-09-08T05:49:54;5.45;;;4.95;;
7737;SDS011;29398;45.328;5.558;2023-09-08T05:50:57;9.25;;;4.88;;
7737;SDS011;29398;45.328;5.558;2023-09-08T05:51:59;5.88;;;5.10;;
7737;SDS011;29398;45.328;5.558;2023-09-08T05:53:03;5.90;;;4.75;;
7737;SDS011;29398;45.328;5.558;2023-09-08T05:54:05;5.90;;;5.07;;
7737;SDS011;29398;45.328;5.558;2023-09-08T05:55:08;5.78;;;5.00;;
7737;SDS011;29398;45.328;5.558;2023-09-08T05:56:09;7.45;;;5.40;;
7737;SDS011;29398;45.328;5.558;2023-09-08T05:57:14;6.55;;;4.70;;
7737;SDS011;29398;45.328;5.558;2023-09-08T05:58:15;6.18;;;5.47;;
7737;SDS011;29398;45.328;5.558;2023-09-08T05:59:16;6.13;;;4.97;;
7737;SDS011;29398;45.328;5.558;2023-09-08T06:00:18;7.32;;;5.10;;
7737;SDS011;29398;45.328;5.558;2023-09-08T06:01:23;7.53;;;4.75;;
7737;SDS011;29398;45.328;5.558;2023-09-08T06:02:25;7.05;;;5.50;;
7737;SDS011;29398;45.328;5.558;2023-09-08T06:03:27;5.70;;;5.13;;
7737;SDS011;29398;45.328;5.558;2023-09-08T06:04:29;5.45;;;4.93;;
7737;SDS011;29398;45.328;5.558;2023-09-08T06:05:34;6.00;;;5.10;;
7737;SDS011;29398;45.328;5.558;2023-09-08T06:06:38;4.95;;;4.45;;
7737;SDS011;29398;45.328;5.558;2023-09-08T06:07:40;5.20;;;4.70;;
7737;SDS011;29398;45.328;5.558;2023-09-08T06:08:43;5.70;;;4.60;;
7737;SDS011;29398;45.328;5.558;2023-09-08T06:09:44;6.88;;;5.40;;
7737;SDS011;29398;45.328;5.558;2023-09-08T06:10:46;8.40;;;5.68;;
7737;SDS011;29398;45.328;5.558;2023-09-08T06:11:47;8.65;;;5.63;;
7737;SDS011;29398;45.328;5.558;2023-09-08T06:12:50;7.03;;;5.32;;
7737;SDS011;29398;45.328;5.558;2023-09-08T06:13:51;6.00;;;5.43;;
7737;SDS011;29398;45.328;5.558;2023-09-08T06:14:56;9.50;;;5.40;;
7737;SDS011;29398;45.328;5.558;2023-09-08T06:15:58;6.80;;;5.35;;
7737;SDS011;29398;45.328;5.558;2023-09-08T06:17:00;7.18;;;5.88;;
7737;SDS011;29398;45.328;5.558;2023-09-08T06:18:02;6.70;;;5.00;;
7737;SDS011;29398;45.328;5.558;2023-09-08T06:19:04;7.40;;;5.68;;
7737;SDS011;29398;45.328;5.558;2023-09-08T06:20:07;8.68;;;5.82;;
7737;SDS011;29398;45.328;5.558;2023-09-08T06:21:10;6.28;;;5.45;;